sensor_id;sensor_type;location;lat;lon;timestamp;P1;P2;P0
62054;PMS5003;48653;51.742;-1.256;2024-01-15T00:03:45;8;8;
62054;PMS5003;48653;51.742;-1.256;2024-01-15T00:06:10;11;9;
62054;PMS5003;48653;51.742;-1.256;2024-01-15T00:08:35;10;8;
62054;PMS5003;48653;51.742;-1.256;2024-01-15T00:11:00;10;10;
62054;PMS5003;48653;51.742;-1.256;2024-01-15T00:13:26;9;9;
62054;PMS5003;48653;51.742;-1.256;2024-01-15T00:15:52;7;6;
62054;PMS5003;48653;51.742;-1.256;2024-01-15T00:18:17;12;9;
62054;PMS5003;48653;51.742;-1.256;2024-01-15T00:20:42;8;6;
62054;PMS5003;48653;51.742;-1.256;2024-01-15T00:23:07;6;6;
62054;PMS5003;48653;51.742;-1.256;2024-01-15T00:25:33;8;8;
62054;PMS5003;48653;51.742;-1.256;2024-01-15T00:27:58;6;5;
62054;PMS5003;48653;51.742;-1.256;2024-01-15T00:30:23;7;7;
62054;PMS5003;48653;51.742;-1.256;2024-01-15T00:32:49;6;6;
62054;PMS5003;48653;51.742;-1.256;2024-01-15T00:35:14;5;5;
62054;PMS5003;48653;51.742;-1.256;2024-01-15T00:37:41;7;6;
62054;PMS5003;48653;51.742;-1.256;2024-01-15T00:40:05;9;5;
62054;PMS5003;48653;51.742;-1.256;2024-01-15T00:42:29;7;6;
62054;PMS5003;48653;51.742;-1.256;2024-01-15T00:44:54;7;5;
62054;PMS5003;48653;51.742;-1.256;2024-01-15T00:47:19;7;5;
62054;PMS5003;48653;51.742;-1.256;2024-01-15T00:52:10;5;5;
62054;PMS5003;48653;51.742;-1.256;2024-01-15T00:54:35;7;4;
62054;PMS5003;48653;51.742;-1.256;2024-01-15T00:57:00;6;6;
62054;PMS5003;48653;51.742;-1.256;2024-01-15T00:59:26;6;6;
62054;PMS5003;48653;51.742;-1.256;2024-01-15T01:01:52;6;3;
62054;PMS5003;48653;51.742;-1.256;2024-01-15T01:04:19;7;5;
62054;PMS5003;48653;51.742;-1.256;2024-01-15T01:06:42;6;5;
62054;PMS5003;48653;51.742;-1.256;2024-01-15T01:09:09;9;7;
62054;PMS5003;48653;51.742;-1.256;2024-01-15T01:11:32;6;4;
62054;PMS5003;48653;51.742;-1.256;2024-01-15T01:13:59;8;5;
62054;PMS5003;48653;51.742;-1.256;2024-01-15T01:16:23;11;7;
62054;PMS5003;48653;51.742;-1.256;2024-01-15T01:18:48;8;5;
62054;PMS5003;48653;51.742;-1.256;2024-01-15T01:21:13;7;7;
62054;PMS5003;48653;51.742;-1.256;2024-01-15T01:23:38;7;5;
62054;PMS5003;48653;51.742;-1.256;2024-01-15T01:26:04;6;6;
62054;PMS5003;48653;51.742;-1.256;2024-01-15T01:28:29;5;5;
62054;PMS5003;48653;51.742;-1.256;2024-01-15T01:30:54;8;6;
62054;PMS5003;48653;51.742;-1.256;2024-01-15T01:33:20;6;4;
62054;PMS5003;48653;51.742;-1.256;2024-01-15T01:35:45;8;5;
62054;PMS5003;48653;51.742;-1.256;2024-01-15T01:38:10;8;5;
62054;PMS5003;48653;51.742;-1.256;2024-01-15T01:40:35;4;4;
62054;PMS5003;48653;51.742;-1.256;2024-01-15T01:43:02;5;5;
62054;PMS5003;48653;51.742;-1.256;2024-01-15T01:45:26;5;5;
62054;PMS5003;48653;51.742;-1.256;2024-01-15T01:47:51;7;6;
62054;PMS5003;48653;51.742;-1.256;2024-01-15T01:50:16;4;3;
62054;PMS5003;48653;51.742;-1.256;2024-01-15T01:52:42;7;5;
62054;PMS5003;48653;51.742;-1.256;2024-01-15T01:55:07;3;3;
62054;PMS5003;48653;51.742;-1.256;2024-01-15T01:57:32;4;4;
62054;PMS5003;48653;51.742;-1.256;2024-01-15T01:59:57;6;4;
62054;PMS5003;48653;51.742;-1.256;2024-01-15T02:02:22;5;4;
62054;PMS5003;48653;51.742;-1.256;2024-01-15T02:04:47;3;3;
62054;PMS5003;48653;51.742;-1.256;2024-01-15T02:07:12;2;2;
62054;PMS5003;48653;51.742;-1.256;2024-01-15T02:09:38;4;4;
62054;PMS5003;48653;51.742;-1.256;2024-01-15T02:12:03;2;2;
62054;PMS5003;48653;51.742;-1.256;2024-01-15T02:14:28;4;4;
62054;PMS5003;48653;51.742;-1.256;2024-01-15T02:16:53;2;2;
62054;PMS5003;48653;51.742;-1.256;2024-01-15T02:19:18;3;3;
62054;PMS5003;48653;51.742;-1.256;2024-01-15T02:21:44;2;2;
62054;PMS5003;48653;51.742;-1.256;2024-01-15T02:24:09;2;2;
62054;PMS5003;48653;51.742;-1.256;2024-01-15T02:26:34;2;2;
62054;PMS5003;48653;51.742;-1.256;2024-01-15T02:28:59;3;3;
62054;PMS5003;48653;51.742;-1.256;2024-01-15T02:31:24;3;3;
62054;PMS5003;48653;51.742;-1.256;2024-01-15T02:33:49;3;3;
62054;PMS5003;48653;51.742;-1.256;2024-01-15T02:36:15;3;3;
62054;PMS5003;48653;51.742;-1.256;2024-01-15T02:38:41;4;3;
62054;PMS5003;48653;51.742;-1.256;2024-01-15T02:41:05;2;2;
62054;PMS5003;48653;51.742;-1.256;2024-01-15T02:43:30;2;2;
62054;PMS5003;48653;51.742;-1.256;2024-01-15T02:45:55;2;2;
62054;PMS5003;48653;51.742;-1.256;2024-01-15T02:48:20;9;4;
62054;PMS5003;48653;51.742;-1.256;2024-01-15T02:50:46;3;3;
62054;PMS5003;48653;51.742;-1.256;2024-01-15T02:53:11;3;3;
62054;PMS5003;48653;51.742;-1.256;2024-01-15T02:55:36;4;3;
62054;PMS5003;48653;51.742;-1.256;2024-01-15T02:58:01;2;2;
62054;PMS5003;48653;51.742;-1.256;2024-01-15T03:00:26;3;2;
62054;PMS5003;48653;51.742;-1.256;2024-01-15T03:02:51;4;2;
62054;PMS5003;48653;51.742;-1.256;2024-01-15T03:05:17;4;3;
62054;PMS5003;48653;51.742;-1.256;2024-01-15T03:07:42;2;2;
62054;PMS5003;48653;51.742;-1.256;2024-01-15T03:10:07;2;2;
62054;PMS5003;48653;51.742;-1.256;2024-01-15T03:12:32;2;2;
62054;PMS5003;48653;51.742;-1.256;2024-01-15T03:14:57;3;3;
62054;PMS5003;48653;51.742;-1.256;2024-01-15T03:17:23;3;2;
62054;PMS5003;48653;51.742;-1.256;2024-01-15T03:19:48;2;2;
62054;PMS5003;48653;51.742;-1.256;2024-01-15T03:22:13;2;1;
62054;PMS5003;48653;51.742;-1.256;2024-01-15T03:24:38;2;2;
62054;PMS5003;48653;51.742;-1.256;2024-01-15T03:27:03;1;1;
62054;PMS5003;48653;51.742;-1.256;2024-01-15T03:29:28;3;2;
62054;PMS5003;48653;51.742;-1.256;2024-01-15T03:31:54;2;2;
62054;PMS5003;48653;51.742;-1.256;2024-01-15T03:34:19;3;3;
62054;PMS5003;48653;51.742;-1.256;2024-01-15T03:36:44;1;1;
62054;PMS5003;48653;51.742;-1.256;2024-01-15T03:39:09;3;3;
62054;PMS5003;48653;51.742;-1.256;2024-01-15T03:41:34;4;3;
62054;PMS5003;48653;51.742;-1.256;2024-01-15T03:43:59;1;1;
62054;PMS5003;48653;51.742;-1.256;2024-01-15T03:46:25;2;2;
62054;PMS5003;48653;51.742;-1.256;2024-01-15T03:48:50;6;3;
62054;PMS5003;48653;51.742;-1.256;2024-01-15T03:51:15;3;3;
62054;PMS5003;48653;51.742;-1.256;2024-01-15T03:53:41;7;3;
62054;PMS5003;48653;51.742;-1.256;2024-01-15T03:56:05;2;2;
62054;PMS5003;48653;51.742;-1.256;2024-01-15T03:58:31;1;1;
62054;PMS5003;48653;51.742;-1.256;2024-01-15T04:00:57;4;2;
62054;PMS5003;48653;51.742;-1.256;2024-01-15T04:03:21;2;2;
62054;PMS5003;48653;51.742;-1.256;2024-01-15T04:05:46;4;2;
62054;PMS5003;48653;51.742;-1.256;2024-01-15T04:08:12;2;2;
62054;PMS5003;48653;51.742;-1.256;2024-01-15T04:10:37;1;1;
62054;PMS5003;48653;51.742;-1.256;2024-01-15T04:13:02;2;2;
62054;PMS5003;48653;51.742;-1.256;2024-01-15T04:15:27;3;3;
62054;PMS5003;48653;51.742;-1.256;2024-01-15T04:17:52;3;2;
62054;PMS5003;48653;51.742;-1.256;2024-01-15T04:20:17;4;3;
62054;PMS5003;48653;51.742;-1.256;2024-01-15T04:22:43;5;3;
62054;PMS5003;48653;51.742;-1.256;2024-01-15T04:25:10;4;2;
62054;PMS5003;48653;51.742;-1.256;2024-01-15T04:27:33;4;2;
62054;PMS5003;48653;51.742;-1.256;2024-01-15T04:30:00;5;3;
62054;PMS5003;48653;51.742;-1.256;2024-01-15T04:32:23;3;3;
62054;PMS5003;48653;51.742;-1.256;2024-01-15T04:34:49;4;4;
62054;PMS5003;48653;51.742;-1.256;2024-01-15T04:37:14;3;2;
62054;PMS5003;48653;51.742;-1.256;2024-01-15T04:39:39;3;3;
62054;PMS5003;48653;51.742;-1.256;2024-01-15T04:42:04;3;3;
62054;PMS5003;48653;51.742;-1.256;2024-01-15T04:44:29;3;3;
62054;PMS5003;48653;51.742;-1.256;2024-01-15T04:46:55;1;1;
62054;PMS5003;48653;51.742;-1.256;2024-01-15T04:49:21;2;2;
62054;PMS5003;48653;51.742;-1.256;2024-01-15T04:51:45;3;2;
62054;PMS5003;48653;51.742;-1.256;2024-01-15T04:54:11;5;4;
62054;PMS5003;48653;51.742;-1.256;2024-01-15T04:56:36;4;3;
62054;PMS5003;48653;51.742;-1.256;2024-01-15T04:59:01;5;3;
62054;PMS5003;48653;51.742;-1.256;2024-01-15T05:01:30;2;2;
62054;PMS5003;48653;51.742;-1.256;2024-01-15T05:03:51;2;2;
62054;PMS5003;48653;51.742;-1.256;2024-01-15T05:06:17;5;4;
62054;PMS5003;48653;51.742;-1.256;2024-01-15T05:08:42;3;3;
62054;PMS5003;48653;51.742;-1.256;2024-01-15T05:11:07;5;3;
62054;PMS5003;48653;51.742;-1.256;2024-01-15T05:13:32;3;3;
62054;PMS5003;48653;51.742;-1.256;2024-01-15T05:15:57;2;2;
62054;PMS5003;48653;51.742;-1.256;2024-01-15T05:18:22;3;3;
62054;PMS5003;48653;51.742;-1.256;2024-01-15T05:20:48;4;4;
62054;PMS5003;48653;51.742;-1.256;2024-01-15T05:23:13;5;3;
62054;PMS5003;48653;51.742;-1.256;2024-01-15T05:25:39;6;6;
62054;PMS5003;48653;51.742;-1.256;2024-01-15T05:28:04;3;3;
62054;PMS5003;48653;51.742;-1.256;2024-01-15T05:30:28;3;3;
62054;PMS5003;48653;51.742;-1.256;2024-01-15T05:32:53;10;4;
62054;PMS5003;48653;51.742;-1.256;2024-01-15T05:35:19;4;3;
62054;PMS5003;48653;51.742;-1.256;2024-01-15T05:37:44;3;3;
62054;PMS5003;48653;51.742;-1.256;2024-01-15T05:40:09;6;6;
62054;PMS5003;48653;51.742;-1.256;2024-01-15T05:42:34;5;3;
62054;PMS5003;48653;51.742;-1.256;2024-01-15T05:45:00;6;5;
62054;PMS5003;48653;51.742;-1.256;2024-01-15T05:47:25;3;3;
62054;PMS5003;48653;51.742;-1.256;2024-01-15T05:49:51;6;4;
62054;PMS5003;48653;51.742;-1.256;2024-01-15T05:52:15;6;6;
62054;PMS5003;48653;51.742;-1.256;2024-01-15T05:54:43;7;7;
62054;PMS5003;48653;51.742;-1.256;2024-01-15T05:57:06;9;6;
62054;PMS5003;48653;51.742;-1.256;2024-01-15T05:59:31;6;4;
62054;PMS5003;48653;51.742;-1.256;2024-01-15T06:01:57;8;6;
62054;PMS5003;48653;51.742;-1.256;2024-01-15T06:04:23;10;10;
62054;PMS5003;48653;51.742;-1.256;2024-01-15T06:06:54;8;8;
62054;PMS5003;48653;51.742;-1.256;2024-01-15T06:09:14;9;6;
62054;PMS5003;48653;51.742;-1.256;2024-01-15T06:14:04;7;7;
62054;PMS5003;48653;51.742;-1.256;2024-01-15T06:23:46;8;6;
62054;PMS5003;48653;51.742;-1.256;2024-01-15T06:28:38;7;7;
62054;PMS5003;48653;51.742;-1.256;2024-01-15T06:31:02;8;8;
62054;PMS5003;48653;51.742;-1.256;2024-01-15T06:33:27;9;8;
62054;PMS5003;48653;51.742;-1.256;2024-01-15T06:35:52;10;8;
62054;PMS5003;48653;51.742;-1.256;2024-01-15T06:40:43;8;7;
62054;PMS5003;48653;51.742;-1.256;2024-01-15T06:43:13;10;8;
62054;PMS5003;48653;51.742;-1.256;2024-01-15T06:57:40;5;4;
62054;PMS5003;48653;51.742;-1.256;2024-01-15T07:00:08;7;5;
62054;PMS5003;48653;51.742;-1.256;2024-01-15T07:02:35;6;5;
62054;PMS5003;48653;51.742;-1.256;2024-01-15T07:07:21;8;5;
62054;PMS5003;48653;51.742;-1.256;2024-01-15T07:14:36;8;5;
62054;PMS5003;48653;51.742;-1.256;2024-01-15T07:17:03;5;5;
62054;PMS5003;48653;51.742;-1.256;2024-01-15T07:21:58;7;7;
62054;PMS5003;48653;51.742;-1.256;2024-01-15T07:24:19;9;9;
62054;PMS5003;48653;51.742;-1.256;2024-01-15T07:26:46;6;6;
62054;PMS5003;48653;51.742;-1.256;2024-01-15T07:29:09;6;6;
62054;PMS5003;48653;51.742;-1.256;2024-01-15T07:31:35;6;5;
62054;PMS5003;48653;51.742;-1.256;2024-01-15T07:36:25;7;6;
62054;PMS5003;48653;51.742;-1.256;2024-01-15T07:38:50;11;6;
62054;PMS5003;48653;51.742;-1.256;2024-01-15T07:41:16;7;6;
62054;PMS5003;48653;51.742;-1.256;2024-01-15T07:43:42;8;7;
62054;PMS5003;48653;51.742;-1.256;2024-01-15T07:50:58;10;10;
62054;PMS5003;48653;51.742;-1.256;2024-01-15T07:55:49;8;7;
62054;PMS5003;48653;51.742;-1.256;2024-01-15T07:58:14;8;8;
62054;PMS5003;48653;51.742;-1.256;2024-01-15T08:00:40;8;6;
62054;PMS5003;48653;51.742;-1.256;2024-01-15T08:03:05;14;8;
62054;PMS5003;48653;51.742;-1.256;2024-01-15T08:05:30;12;10;
62054;PMS5003;48653;51.742;-1.256;2024-01-15T08:22:28;7;7;
62054;PMS5003;48653;51.742;-1.256;2024-01-15T08:39:23;4;4;
62054;PMS5003;48653;51.742;-1.256;2024-01-15T08:41:49;3;3;
62054;PMS5003;48653;51.742;-1.256;2024-01-15T08:44:15;5;2;
62054;PMS5003;48653;51.742;-1.256;2024-01-15T08:46:40;5;5;
62054;PMS5003;48653;51.742;-1.256;2024-01-15T08:49:05;9;6;
62054;PMS5003;48653;51.742;-1.256;2024-01-15T08:51:30;3;3;
62054;PMS5003;48653;51.742;-1.256;2024-01-15T08:53:56;3;3;
62054;PMS5003;48653;51.742;-1.256;2024-01-15T08:56:21;3;3;
62054;PMS5003;48653;51.742;-1.256;2024-01-15T08:58:46;2;2;
62054;PMS5003;48653;51.742;-1.256;2024-01-15T09:01:12;6;4;
62054;PMS5003;48653;51.742;-1.256;2024-01-15T09:06:02;1;1;
62054;PMS5003;48653;51.742;-1.256;2024-01-15T09:08:27;3;1;
62054;PMS5003;48653;51.742;-1.256;2024-01-15T09:10:52;2;2;
62054;PMS5003;48653;51.742;-1.256;2024-01-15T09:13:17;2;1;
62054;PMS5003;48653;51.742;-1.256;2024-01-15T09:15:43;1;1;
62054;PMS5003;48653;51.742;-1.256;2024-01-15T09:18:08;2;2;
62054;PMS5003;48653;51.742;-1.256;2024-01-15T09:20:34;2;2;
62054;PMS5003;48653;51.742;-1.256;2024-01-15T09:22:59;4;2;
62054;PMS5003;48653;51.742;-1.256;2024-01-15T09:27:49;6;2;
62054;PMS5003;48653;51.742;-1.256;2024-01-15T09:30:14;3;3;
62054;PMS5003;48653;51.742;-1.256;2024-01-15T09:32:39;7;5;
62054;PMS5003;48653;51.742;-1.256;2024-01-15T09:35:06;9;6;
62054;PMS5003;48653;51.742;-1.256;2024-01-15T09:37:29;17;16;
62054;PMS5003;48653;51.742;-1.256;2024-01-15T09:39:54;8;6;
62054;PMS5003;48653;51.742;-1.256;2024-01-15T09:42:20;5;4;
62054;PMS5003;48653;51.742;-1.256;2024-01-15T09:47:11;4;3;
62054;PMS5003;48653;51.742;-1.256;2024-01-15T09:49:36;5;4;
62054;PMS5003;48653;51.742;-1.256;2024-01-15T09:52:01;4;2;
62054;PMS5003;48653;51.742;-1.256;2024-01-15T09:54:28;1;1;
62054;PMS5003;48653;51.742;-1.256;2024-01-15T09:56:52;3;2;
62054;PMS5003;48653;51.742;-1.256;2024-01-15T09:59:17;4;2;
62054;PMS5003;48653;51.742;-1.256;2024-01-15T10:01:42;5;4;
62054;PMS5003;48653;51.742;-1.256;2024-01-15T10:04:07;1;1;
62054;PMS5003;48653;51.742;-1.256;2024-01-15T10:06:32;1;1;
62054;PMS5003;48653;51.742;-1.256;2024-01-15T10:08:58;2;2;
62054;PMS5003;48653;51.742;-1.256;2024-01-15T10:13:48;5;2;
62054;PMS5003;48653;51.742;-1.256;2024-01-15T10:16:13;2;1;
62054;PMS5003;48653;51.742;-1.256;2024-01-15T10:18:38;20;17;
62054;PMS5003;48653;51.742;-1.256;2024-01-15T10:21:04;3;3;
62054;PMS5003;48653;51.742;-1.256;2024-01-15T10:23:29;36;27;
62054;PMS5003;48653;51.742;-1.256;2024-01-15T10:25:56;26;22;
62054;PMS5003;48653;51.742;-1.256;2024-01-15T10:28:20;38;34;
62054;PMS5003;48653;51.742;-1.256;2024-01-15T10:30:45;16;11;
62054;PMS5003;48653;51.742;-1.256;2024-01-15T10:33:10;9;8;
62054;PMS5003;48653;51.742;-1.256;2024-01-15T10:35:37;12;9;
62054;PMS5003;48653;51.742;-1.256;2024-01-15T10:38:01;14;11;
62054;PMS5003;48653;51.742;-1.256;2024-01-15T10:40:26;8;6;
62054;PMS5003;48653;51.742;-1.256;2024-01-15T10:42:51;2;2;
62054;PMS5003;48653;51.742;-1.256;2024-01-15T10:45:17;9;6;
62054;PMS5003;48653;51.742;-1.256;2024-01-15T10:47:42;4;2;
62054;PMS5003;48653;51.742;-1.256;2024-01-15T10:50:08;0;0;
62054;PMS5003;48653;51.742;-1.256;2024-01-15T10:52:33;3;3;
62054;PMS5003;48653;51.742;-1.256;2024-01-15T10:54:58;3;3;
62054;PMS5003;48653;51.742;-1.256;2024-01-15T10:57:23;4;2;
62054;PMS5003;48653;51.742;-1.256;2024-01-15T11:02:14;0;0;
62054;PMS5003;48653;51.742;-1.256;2024-01-15T11:04:38;0;0;
62054;PMS5003;48653;51.742;-1.256;2024-01-15T11:07:03;3;1;
62054;PMS5003;48653;51.742;-1.256;2024-01-15T11:09:29;1;1;
62054;PMS5003;48653;51.742;-1.256;2024-01-15T11:12:06;3;1;
62054;PMS5003;48653;51.742;-1.256;2024-01-15T11:19:12;1;1;
62054;PMS5003;48653;51.742;-1.256;2024-01-15T11:24:00;2;1;
62054;PMS5003;48653;51.742;-1.256;2024-01-15T11:26:29;1;0;
62054;PMS5003;48653;51.742;-1.256;2024-01-15T11:28:50;1;0;
62054;PMS5003;48653;51.742;-1.256;2024-01-15T11:31:15;2;1;
62054;PMS5003;48653;51.742;-1.256;2024-01-15T11:36:06;3;3;
62054;PMS5003;48653;51.742;-1.256;2024-01-15T11:38:31;0;0;
62054;PMS5003;48653;51.742;-1.256;2024-01-15T11:40:56;3;1;
62054;PMS5003;48653;51.742;-1.256;2024-01-15T11:43:21;2;1;
62054;PMS5003;48653;51.742;-1.256;2024-01-15T11:45:47;4;4;
62054;PMS5003;48653;51.742;-1.256;2024-01-15T11:48:12;1;1;
62054;PMS5003;48653;51.742;-1.256;2024-01-15T11:50:37;2;2;
62054;PMS5003;48653;51.742;-1.256;2024-01-15T11:53:02;3;3;
62054;PMS5003;48653;51.742;-1.256;2024-01-15T11:55:27;5;3;
62054;PMS5003;48653;51.742;-1.256;2024-01-15T11:57:53;2;2;
62054;PMS5003;48653;51.742;-1.256;2024-01-15T12:00:17;2;2;
62054;PMS5003;48653;51.742;-1.256;2024-01-15T12:02:43;3;1;
62054;PMS5003;48653;51.742;-1.256;2024-01-15T12:05:08;1;1;
62054;PMS5003;48653;51.742;-1.256;2024-01-15T12:09:58;3;2;
62054;PMS5003;48653;51.742;-1.256;2024-01-15T12:12:24;3;3;
62054;PMS5003;48653;51.742;-1.256;2024-01-15T12:14:48;2;1;
62054;PMS5003;48653;51.742;-1.256;2024-01-15T12:17:14;1;1;
62054;PMS5003;48653;51.742;-1.256;2024-01-15T12:19:39;4;1;
62054;PMS5003;48653;51.742;-1.256;2024-01-15T12:22:04;0;0;
62054;PMS5003;48653;51.742;-1.256;2024-01-15T12:24:29;2;1;
62054;PMS5003;48653;51.742;-1.256;2024-01-15T12:29:20;2;2;
62054;PMS5003;48653;51.742;-1.256;2024-01-15T12:31:46;1;1;
62054;PMS5003;48653;51.742;-1.256;2024-01-15T12:34:10;1;1;
62054;PMS5003;48653;51.742;-1.256;2024-01-15T12:36:35;1;1;
62054;PMS5003;48653;51.742;-1.256;2024-01-15T12:39:00;4;4;
62054;PMS5003;48653;51.742;-1.256;2024-01-15T12:41:25;2;2;
62054;PMS5003;48653;51.742;-1.256;2024-01-15T12:43:51;3;2;
62054;PMS5003;48653;51.742;-1.256;2024-01-15T12:51:07;2;2;
62054;PMS5003;48653;51.742;-1.256;2024-01-15T12:53:31;3;1;
62054;PMS5003;48653;51.742;-1.256;2024-01-15T12:55:56;1;1;
62054;PMS5003;48653;51.742;-1.256;2024-01-15T13:00:46;2;2;
62054;PMS5003;48653;51.742;-1.256;2024-01-15T13:05:37;6;2;
62054;PMS5003;48653;51.742;-1.256;2024-01-15T13:08:02;1;1;
62054;PMS5003;48653;51.742;-1.256;2024-01-15T13:10:27;1;1;
62054;PMS5003;48653;51.742;-1.256;2024-01-15T13:12:52;1;1;
62054;PMS5003;48653;51.742;-1.256;2024-01-15T13:15:17;1;1;
62054;PMS5003;48653;51.742;-1.256;2024-01-15T13:17:44;2;2;
62054;PMS5003;48653;51.742;-1.256;2024-01-15T13:20:08;3;1;
62054;PMS5003;48653;51.742;-1.256;2024-01-15T13:22:33;0;0;
62054;PMS5003;48653;51.742;-1.256;2024-01-15T13:24:58;4;3;
62054;PMS5003;48653;51.742;-1.256;2024-01-15T13:27:23;5;2;
62054;PMS5003;48653;51.742;-1.256;2024-01-15T13:29:48;2;1;
62054;PMS5003;48653;51.742;-1.256;2024-01-15T13:32:13;5;1;
62054;PMS5003;48653;51.742;-1.256;2024-01-15T13:34:39;2;0;
62054;PMS5003;48653;51.742;-1.256;2024-01-15T13:37:04;2;2;
62054;PMS5003;48653;51.742;-1.256;2024-01-15T13:46:44;1;1;
62054;PMS5003;48653;51.742;-1.256;2024-01-15T13:51:40;5;1;
62054;PMS5003;48653;51.742;-1.256;2024-01-15T13:56:30;2;0;
62054;PMS5003;48653;51.742;-1.256;2024-01-15T14:01:16;1;1;
62054;PMS5003;48653;51.742;-1.256;2024-01-15T14:03:41;5;3;
62054;PMS5003;48653;51.742;-1.256;2024-01-15T14:13:22;1;1;
62054;PMS5003;48653;51.742;-1.256;2024-01-15T14:18:12;0;0;
62054;PMS5003;48653;51.742;-1.256;2024-01-15T14:20:38;1;1;
62054;PMS5003;48653;51.742;-1.256;2024-01-15T14:23:03;2;1;
62054;PMS5003;48653;51.742;-1.256;2024-01-15T14:25:28;1;1;
62054;PMS5003;48653;51.742;-1.256;2024-01-15T14:27:53;1;0;
62054;PMS5003;48653;51.742;-1.256;2024-01-15T14:30:18;0;0;
62054;PMS5003;48653;51.742;-1.256;2024-01-15T14:32:43;2;1;
62054;PMS5003;48653;51.742;-1.256;2024-01-15T14:35:09;0;0;
62054;PMS5003;48653;51.742;-1.256;2024-01-15T14:52:06;5;3;
62054;PMS5003;48653;51.742;-1.256;2024-01-15T14:54:31;3;1;
62054;PMS5003;48653;51.742;-1.256;2024-01-15T14:59:21;5;4;
62054;PMS5003;48653;51.742;-1.256;2024-01-15T15:01:47;2;2;
62054;PMS5003;48653;51.742;-1.256;2024-01-15T15:06:39;3;2;
62054;PMS5003;48653;51.742;-1.256;2024-01-15T15:11:28;3;1;
62054;PMS5003;48653;51.742;-1.256;2024-01-15T15:23:33;3;2;
62054;PMS5003;48653;51.742;-1.256;2024-01-15T15:35:39;3;2;
62054;PMS5003;48653;51.742;-1.256;2024-01-15T15:38:04;2;2;
62054;PMS5003;48653;51.742;-1.256;2024-01-15T15:40:29;6;3;
62054;PMS5003;48653;51.742;-1.256;2024-01-15T15:45:25;4;2;
62054;PMS5003;48653;51.742;-1.256;2024-01-15T15:47:45;5;3;
62054;PMS5003;48653;51.742;-1.256;2024-01-15T15:50:10;3;2;
62054;PMS5003;48653;51.742;-1.256;2024-01-15T15:52:35;2;2;
62054;PMS5003;48653;51.742;-1.256;2024-01-15T15:55:01;3;3;
62054;PMS5003;48653;51.742;-1.256;2024-01-15T15:57:26;3;2;
62054;PMS5003;48653;51.742;-1.256;2024-01-15T15:59:51;3;2;
62054;PMS5003;48653;51.742;-1.256;2024-01-15T16:02:16;5;3;
62054;PMS5003;48653;51.742;-1.256;2024-01-15T16:04:43;3;1;
62054;PMS5003;48653;51.742;-1.256;2024-01-15T16:07:07;3;2;
62054;PMS5003;48653;51.742;-1.256;2024-01-15T16:09:32;3;2;
62054;PMS5003;48653;51.742;-1.256;2024-01-15T16:11:57;3;3;
62054;PMS5003;48653;51.742;-1.256;2024-01-15T16:14:23;7;5;
62054;PMS5003;48653;51.742;-1.256;2024-01-15T16:16:48;9;7;
62054;PMS5003;48653;51.742;-1.256;2024-01-15T16:19:14;8;6;
62054;PMS5003;48653;51.742;-1.256;2024-01-15T16:21:38;6;5;
62054;PMS5003;48653;51.742;-1.256;2024-01-15T16:26:28;7;7;
62054;PMS5003;48653;51.742;-1.256;2024-01-15T16:28:55;6;6;
62054;PMS5003;48653;51.742;-1.256;2024-01-15T16:31:19;7;7;
62054;PMS5003;48653;51.742;-1.256;2024-01-15T16:33:45;7;3;
62054;PMS5003;48653;51.742;-1.256;2024-01-15T16:36:10;7;5;
62054;PMS5003;48653;51.742;-1.256;2024-01-15T16:38:35;5;5;
62054;PMS5003;48653;51.742;-1.256;2024-01-15T16:41:01;11;8;
62054;PMS5003;48653;51.742;-1.256;2024-01-15T16:43:27;12;9;
62054;PMS5003;48653;51.742;-1.256;2024-01-15T16:45:52;6;5;
62054;PMS5003;48653;51.742;-1.256;2024-01-15T16:48:17;8;6;
62054;PMS5003;48653;51.742;-1.256;2024-01-15T16:50:42;6;5;
62054;PMS5003;48653;51.742;-1.256;2024-01-15T16:53:07;9;5;
62054;PMS5003;48653;51.742;-1.256;2024-01-15T16:55:32;5;3;
62054;PMS5003;48653;51.742;-1.256;2024-01-15T17:00:24;5;5;
62054;PMS5003;48653;51.742;-1.256;2024-01-15T17:02:48;9;6;
62054;PMS5003;48653;51.742;-1.256;2024-01-15T17:05:13;8;8;
62054;PMS5003;48653;51.742;-1.256;2024-01-15T17:10:04;16;13;
62054;PMS5003;48653;51.742;-1.256;2024-01-15T17:12:29;12;9;
62054;PMS5003;48653;51.742;-1.256;2024-01-15T17:19:48;14;13;
62054;PMS5003;48653;51.742;-1.256;2024-01-15T17:22:12;16;14;
62054;PMS5003;48653;51.742;-1.256;2024-01-15T17:24:37;17;15;
62054;PMS5003;48653;51.742;-1.256;2024-01-15T17:29:28;12;9;
62054;PMS5003;48653;51.742;-1.256;2024-01-15T17:34:18;16;11;
62054;PMS5003;48653;51.742;-1.256;2024-01-15T17:36:44;17;15;
62054;PMS5003;48653;51.742;-1.256;2024-01-15T17:39:10;19;16;
62054;PMS5003;48653;51.742;-1.256;2024-01-15T17:41:35;9;9;
62054;PMS5003;48653;51.742;-1.256;2024-01-15T17:44:01;12;10;
62054;PMS5003;48653;51.742;-1.256;2024-01-15T17:46:26;10;8;
62054;PMS5003;48653;51.742;-1.256;2024-01-15T17:51:17;18;6;
62054;PMS5003;48653;51.742;-1.256;2024-01-15T17:53:42;13;12;
62054;PMS5003;48653;51.742;-1.256;2024-01-15T17:56:12;10;8;
62054;PMS5003;48653;51.742;-1.256;2024-01-15T17:58:32;15;13;
62054;PMS5003;48653;51.742;-1.256;2024-01-15T18:00:58;13;9;
62054;PMS5003;48653;51.742;-1.256;2024-01-15T18:03:23;9;9;
62054;PMS5003;48653;51.742;-1.256;2024-01-15T18:05:49;12;7;
62054;PMS5003;48653;51.742;-1.256;2024-01-15T18:10:39;14;12;
62054;PMS5003;48653;51.742;-1.256;2024-01-15T18:13:05;14;12;
62054;PMS5003;48653;51.742;-1.256;2024-01-15T18:15:30;9;9;
62054;PMS5003;48653;51.742;-1.256;2024-01-15T18:17:56;12;11;
62054;PMS5003;48653;51.742;-1.256;2024-01-15T18:20:21;20;16;
62054;PMS5003;48653;51.742;-1.256;2024-01-15T18:22:46;27;23;
62054;PMS5003;48653;51.742;-1.256;2024-01-15T18:25:12;29;18;
62054;PMS5003;48653;51.742;-1.256;2024-01-15T18:27:37;23;15;
62054;PMS5003;48653;51.742;-1.256;2024-01-15T18:30:03;16;13;
62054;PMS5003;48653;51.742;-1.256;2024-01-15T18:32:28;13;11;
62054;PMS5003;48653;51.742;-1.256;2024-01-15T18:34:53;9;8;
62054;PMS5003;48653;51.742;-1.256;2024-01-15T18:37:18;11;8;
62054;PMS5003;48653;51.742;-1.256;2024-01-15T18:39:44;22;15;
62054;PMS5003;48653;51.742;-1.256;2024-01-15T18:42:10;36;26;
62054;PMS5003;48653;51.742;-1.256;2024-01-15T18:47:02;32;26;
62054;PMS5003;48653;51.742;-1.256;2024-01-15T18:49:26;34;31;
62054;PMS5003;48653;51.742;-1.256;2024-01-15T18:51:53;37;25;
62054;PMS5003;48653;51.742;-1.256;2024-01-15T18:54:18;37;24;
62054;PMS5003;48653;51.742;-1.256;2024-01-15T18:56:43;26;22;
62054;PMS5003;48653;51.742;-1.256;2024-01-15T18:59:08;20;13;
62054;PMS5003;48653;51.742;-1.256;2024-01-15T19:01:33;17;12;
62054;PMS5003;48653;51.742;-1.256;2024-01-15T19:06:25;22;14;
62054;PMS5003;48653;51.742;-1.256;2024-01-15T19:08:50;12;9;
62054;PMS5003;48653;51.742;-1.256;2024-01-15T19:11:15;16;12;
62054;PMS5003;48653;51.742;-1.256;2024-01-15T19:13:41;14;11;
62054;PMS5003;48653;51.742;-1.256;2024-01-15T19:16:07;21;17;
62054;PMS5003;48653;51.742;-1.256;2024-01-15T19:20:58;24;17;
62054;PMS5003;48653;51.742;-1.256;2024-01-15T19:23:22;26;20;
62054;PMS5003;48653;51.742;-1.256;2024-01-15T19:28:14;23;18;
62054;PMS5003;48653;51.742;-1.256;2024-01-15T19:33:05;24;21;
62054;PMS5003;48653;51.742;-1.256;2024-01-15T19:35:30;19;16;
62054;PMS5003;48653;51.742;-1.256;2024-01-15T19:37:55;22;19;
62054;PMS5003;48653;51.742;-1.256;2024-01-15T19:40:21;14;13;
62054;PMS5003;48653;51.742;-1.256;2024-01-15T19:42:46;11;11;
62054;PMS5003;48653;51.742;-1.256;2024-01-15T19:45:11;17;13;
62054;PMS5003;48653;51.742;-1.256;2024-01-15T19:47:39;19;16;
62054;PMS5003;48653;51.742;-1.256;2024-01-15T19:50:04;15;15;
62054;PMS5003;48653;51.742;-1.256;2024-01-15T19:52:28;25;16;